sensor_id;sensor_type;location;lat;lon;timestamp;P1;durP1;ratioP1;P2;durP2;ratioP2
55993;SDS011;67425;52.126;20.638;2023-07-09T00:00:36;7.97;;;5.90;;
55993;SDS011;67425;52.126;20.638;2023-07-09T00:03:01;8.40;;;6.13;;
55993;SDS011;67425;52.126;20.638;2023-07-09T00:05:26;8.75;;;6.47;;
55993;SDS011;67425;52.126;20.638;2023-07-09T00:07:52;10.80;;;6.60;;
55993;SDS011;67425;52.126;20.638;2023-07-09T00:10:18;9.63;;;6.90;;
55993;SDS011;67425;52.126;20.638;2023-07-09T00:12:45;8.93;;;6.13;;
55993;SDS011;67425;52.126;20.638;2023-07-09T00:15:12;8.60;;;5.40;;
55993;SDS011;67425;52.126;20.638;2023-07-09T00:17:38;7.40;;;6.70;;
55993;SDS011;67425;52.126;20.638;2023-07-09T00:20:05;10.90;;;6.43;;
55993;SDS011;67425;52.126;20.638;2023-07-09T00:22:39;9.93;;;6.43;;
55993;SDS011;67425;52.126;20.638;2023-07-09T00:25:05;9.48;;;6.90;;
55993;SDS011;67425;52.126;20.638;2023-07-09T00:27:32;9.50;;;6.22;;
55993;SDS011;67425;52.126;20.638;2023-07-09T00:29:58;9.10;;;6.45;;
55993;SDS011;67425;52.126;20.638;2023-07-09T00:32:23;13.93;;;7.50;;
55993;SDS011;67425;52.126;20.638;2023-07-09T00:34:50;13.38;;;6.72;;
55993;SDS011;67425;52.126;20.638;2023-07-09T00:37:19;17.63;;;6.72;;
55993;SDS011;67425;52.126;20.638;2023-07-09T00:39:46;9.13;;;6.28;;
55993;SDS011;67425;52.126;20.638;2023-07-09T00:42:14;12.20;;;6.20;;
55993;SDS011;67425;52.126;20.638;2023-07-09T00:44:42;6.43;;;5.75;;
55993;SDS011;67425;52.126;20.638;2023-07-09T00:47:17;9.20;;;6.00;;
55993;SDS011;67425;52.126;20.638;2023-07-09T00:49:48;7.85;;;5.85;;
55993;SDS011;67425;52.126;20.638;2023-07-09T00:52:21;9.82;;;6.70;;
55993;SDS011;67425;52.126;20.638;2023-07-09T00:55:10;7.30;;;6.63;;
55993;SDS011;67425;52.126;20.638;2023-07-09T00:57:39;12.80;;;6.68;;
55993;SDS011;67425;52.126;20.638;2023-07-09T01:00:09;7.55;;;6.25;;
55993;SDS011;67425;52.126;20.638;2023-07-09T01:02:38;8.77;;;6.53;;
55993;SDS011;67425;52.126;20.638;2023-07-09T01:05:08;9.35;;;6.20;;
55993;SDS011;67425;52.126;20.638;2023-07-09T01:07:35;9.77;;;6.30;;
55993;SDS011;67425;52.126;20.638;2023-07-09T01:10:01;6.55;;;5.95;;
55993;SDS011;67425;52.126;20.638;2023-07-09T01:12:27;7.63;;;6.25;;
55993;SDS011;67425;52.126;20.638;2023-07-09T01:14:53;8.75;;;6.38;;
55993;SDS011;67425;52.126;20.638;2023-07-09T01:17:23;8.68;;;6.75;;
55993;SDS011;67425;52.126;20.638;2023-07-09T01:19:52;8.20;;;6.35;;
55993;SDS011;67425;52.126;20.638;2023-07-09T01:22:19;10.70;;;6.93;;
55993;SDS011;67425;52.126;20.638;2023-07-09T01:27:32;11.82;;;6.55;;
55993;SDS011;67425;52.126;20.638;2023-07-09T01:30:01;12.80;;;6.57;;
55993;SDS011;67425;52.126;20.638;2023-07-09T01:32:29;9.40;;;6.95;;
55993;SDS011;67425;52.126;20.638;2023-07-09T01:34:56;10.15;;;6.65;;
55993;SDS011;67425;52.126;20.638;2023-07-09T01:37:24;8.52;;;6.65;;
55993;SDS011;67425;52.126;20.638;2023-07-09T01:39:52;8.68;;;6.40;;
55993;SDS011;67425;52.126;20.638;2023-07-09T01:42:18;15.88;;;6.43;;
55993;SDS011;67425;52.126;20.638;2023-07-09T01:44:47;8.70;;;6.53;;
55993;SDS011;67425;52.126;20.638;2023-07-09T01:47:15;8.27;;;7.13;;
55993;SDS011;67425;52.126;20.638;2023-07-09T01:49:40;8.60;;;6.63;;
55993;SDS011;67425;52.126;20.638;2023-07-09T01:52:05;9.40;;;6.22;;
55993;SDS011;67425;52.126;20.638;2023-07-09T01:54:33;8.23;;;6.57;;
55993;SDS011;67425;52.126;20.638;2023-07-09T01:57:13;13.25;;;6.93;;
55993;SDS011;67425;52.126;20.638;2023-07-09T01:59:50;14.20;;;6.70;;
55993;SDS011;67425;52.126;20.638;2023-07-09T02:02:16;12.57;;;7.38;;
55993;SDS011;67425;52.126;20.638;2023-07-09T02:04:46;8.25;;;6.88;;
55993;SDS011;67425;52.126;20.638;2023-07-09T02:07:15;15.57;;;6.53;;
55993;SDS011;67425;52.126;20.638;2023-07-09T02:09:41;6.70;;;6.05;;
55993;SDS011;67425;52.126;20.638;2023-07-09T02:12:07;14.07;;;5.93;;
55993;SDS011;67425;52.126;20.638;2023-07-09T02:14:34;8.00;;;6.15;;
55993;SDS011;67425;52.126;20.638;2023-07-09T02:16:59;9.48;;;6.78;;
55993;SDS011;67425;52.126;20.638;2023-07-09T02:19:24;6.68;;;6.07;;
55993;SDS011;67425;52.126;20.638;2023-07-09T02:21:49;11.88;;;5.97;;
55993;SDS011;67425;52.126;20.638;2023-07-09T02:24:15;11.98;;;6.60;;
55993;SDS011;67425;52.126;20.638;2023-07-09T02:26:40;7.93;;;6.25;;
55993;SDS011;67425;52.126;20.638;2023-07-09T02:29:06;8.35;;;6.05;;
55993;SDS011;67425;52.126;20.638;2023-07-09T02:31:32;14.15;;;7.03;;
55993;SDS011;67425;52.126;20.638;2023-07-09T02:33:58;10.02;;;6.97;;
55993;SDS011;67425;52.126;20.638;2023-07-09T02:36:24;10.20;;;6.78;;
55993;SDS011;67425;52.126;20.638;2023-07-09T02:38:50;10.27;;;7.35;;
55993;SDS011;67425;52.126;20.638;2023-07-09T02:41:15;16.25;;;6.88;;
55993;SDS011;67425;52.126;20.638;2023-07-09T02:43:41;8.23;;;6.68;;
55993;SDS011;67425;52.126;20.638;2023-07-09T02:46:06;8.88;;;6.63;;
55993;SDS011;67425;52.126;20.638;2023-07-09T02:48:32;10.13;;;6.38;;
55993;SDS011;67425;52.126;20.638;2023-07-09T02:50:57;7.18;;;6.47;;
55993;SDS011;67425;52.126;20.638;2023-07-09T02:53:22;6.53;;;5.75;;
55993;SDS011;67425;52.126;20.638;2023-07-09T02:55:48;6.78;;;6.18;;
55993;SDS011;67425;52.126;20.638;2023-07-09T02:58:13;13.80;;;6.78;;
55993;SDS011;67425;52.126;20.638;2023-07-09T03:00:38;7.32;;;6.22;;
55993;SDS011;67425;52.126;20.638;2023-07-09T03:03:04;14.48;;;6.57;;
55993;SDS011;67425;52.126;20.638;2023-07-09T03:05:29;8.73;;;6.93;;
55993;SDS011;67425;52.126;20.638;2023-07-09T03:07:54;12.35;;;6.80;;
55993;SDS011;67425;52.126;20.638;2023-07-09T03:10:20;14.10;;;7.03;;
55993;SDS011;67425;52.126;20.638;2023-07-09T03:12:45;9.77;;;5.47;;
55993;SDS011;67425;52.126;20.638;2023-07-09T03:15:11;7.63;;;6.65;;
55993;SDS011;67425;52.126;20.638;2023-07-09T03:17:36;11.15;;;5.90;;
55993;SDS011;67425;52.126;20.638;2023-07-09T03:20:02;7.47;;;5.93;;
55993;SDS011;67425;52.126;20.638;2023-07-09T03:22:27;8.80;;;6.13;;
55993;SDS011;67425;52.126;20.638;2023-07-09T03:24:53;6.55;;;5.95;;
55993;SDS011;67425;52.126;20.638;2023-07-09T03:27:18;11.20;;;6.65;;
55993;SDS011;67425;52.126;20.638;2023-07-09T03:29:43;7.55;;;6.13;;
55993;SDS011;67425;52.126;20.638;2023-07-09T03:32:09;17.13;;;6.22;;
55993;SDS011;67425;52.126;20.638;2023-07-09T03:34:34;13.82;;;4.82;;
55993;SDS011;67425;52.126;20.638;2023-07-09T03:36:59;6.82;;;5.85;;
55993;SDS011;67425;52.126;20.638;2023-07-09T03:39:25;10.18;;;6.07;;
55993;SDS011;67425;52.126;20.638;2023-07-09T03:41:50;9.63;;;6.25;;
55993;SDS011;67425;52.126;20.638;2023-07-09T03:44:15;9.10;;;5.85;;
55993;SDS011;67425;52.126;20.638;2023-07-09T03:46:41;7.53;;;5.70;;
55993;SDS011;67425;52.126;20.638;2023-07-09T03:49:06;20.70;;;5.43;;
55993;SDS011;67425;52.126;20.638;2023-07-09T03:51:31;8.63;;;5.03;;
55993;SDS011;67425;52.126;20.638;2023-07-09T03:53:57;11.63;;;5.65;;
55993;SDS011;67425;52.126;20.638;2023-07-09T03:56:22;7.32;;;5.47;;
55993;SDS011;67425;52.126;20.638;2023-07-09T03:58:47;9.07;;;5.32;;
55993;SDS011;67425;52.126;20.638;2023-07-09T04:01:13;8.05;;;4.85;;
55993;SDS011;67425;52.126;20.638;2023-07-09T04:03:38;5.93;;;5.10;;
55993;SDS011;67425;52.126;20.638;2023-07-09T04:06:03;5.45;;;4.95;;
55993;SDS011;67425;52.126;20.638;2023-07-09T04:08:29;5.55;;;4.78;;
55993;SDS011;67425;52.126;20.638;2023-07-09T04:10:54;6.25;;;5.55;;
55993;SDS011;67425;52.126;20.638;2023-07-09T04:13:23;6.88;;;5.40;;
55993;SDS011;67425;52.126;20.638;2023-07-09T04:15:49;10.70;;;5.38;;
55993;SDS011;67425;52.126;20.638;2023-07-09T04:18:14;6.68;;;4.88;;
55993;SDS011;67425;52.126;20.638;2023-07-09T04:20:40;5.75;;;5.20;;
55993;SDS011;67425;52.126;20.638;2023-07-09T04:23:05;7.88;;;5.03;;
55993;SDS011;67425;52.126;20.638;2023-07-09T04:25:31;9.50;;;5.03;;
55993;SDS011;67425;52.126;20.638;2023-07-09T04:27:56;4.57;;;4.18;;
55993;SDS011;67425;52.126;20.638;2023-07-09T04:30:21;5.38;;;4.60;;
55993;SDS011;67425;52.126;20.638;2023-07-09T04:32:47;10.20;;;5.13;;
55993;SDS011;67425;52.126;20.638;2023-07-09T04:35:13;8.80;;;2.70;;
55993;SDS011;67425;52.126;20.638;2023-07-09T04:37:39;9.00;;;5.07;;
55993;SDS011;67425;52.126;20.638;2023-07-09T04:40:06;5.43;;;4.88;;
55993;SDS011;67425;52.126;20.638;2023-07-09T04:42:35;13.05;;;4.65;;
55993;SDS011;67425;52.126;20.638;2023-07-09T04:45:01;9.00;;;4.60;;
55993;SDS011;67425;52.126;20.638;2023-07-09T04:47:26;4.38;;;4.03;;
55993;SDS011;67425;52.126;20.638;2023-07-09T04:49:52;7.30;;;4.50;;
55993;SDS011;67425;52.126;20.638;2023-07-09T04:52:17;7.95;;;4.47;;
55993;SDS011;67425;52.126;20.638;2023-07-09T04:54:42;8.57;;;3.63;;
55993;SDS011;67425;52.126;20.638;2023-07-09T04:57:11;6.03;;;4.55;;
55993;SDS011;67425;52.126;20.638;2023-07-09T04:59:37;10.95;;;4.50;;
55993;SDS011;67425;52.126;20.638;2023-07-09T05:02:03;7.50;;;4.47;;
55993;SDS011;67425;52.126;20.638;2023-07-09T05:04:29;7.00;;;4.60;;
55993;SDS011;67425;52.126;20.638;2023-07-09T05:06:56;5.70;;;4.13;;
55993;SDS011;67425;52.126;20.638;2023-07-09T05:09:22;6.75;;;3.83;;
55993;SDS011;67425;52.126;20.638;2023-07-09T05:11:48;7.75;;;3.95;;
55993;SDS011;67425;52.126;20.638;2023-07-09T05:14:14;4.60;;;3.47;;
55993;SDS011;67425;52.126;20.638;2023-07-09T05:16:40;9.13;;;4.10;;
55993;SDS011;67425;52.126;20.638;2023-07-09T05:19:06;6.32;;;4.28;;
55993;SDS011;67425;52.126;20.638;2023-07-09T05:21:33;8.38;;;4.00;;
55993;SDS011;67425;52.126;20.638;2023-07-09T05:23:59;13.13;;;3.88;;
55993;SDS011;67425;52.126;20.638;2023-07-09T05:26:24;8.55;;;3.90;;
55993;SDS011;67425;52.126;20.638;2023-07-09T05:28:50;9.80;;;4.40;;
55993;SDS011;67425;52.126;20.638;2023-07-09T05:31:15;5.82;;;4.25;;
55993;SDS011;67425;52.126;20.638;2023-07-09T05:33:40;12.45;;;3.33;;
55993;SDS011;67425;52.126;20.638;2023-07-09T05:36:06;6.97;;;3.63;;
55993;SDS011;67425;52.126;20.638;2023-07-09T05:38:32;5.20;;;4.25;;
55993;SDS011;67425;52.126;20.638;2023-07-09T05:41:01;4.80;;;3.45;;
55993;SDS011;67425;52.126;20.638;2023-07-09T05:43:29;4.47;;;3.75;;
55993;SDS011;67425;52.126;20.638;2023-07-09T05:45:55;5.35;;;3.65;;
55993;SDS011;67425;52.126;20.638;2023-07-09T05:48:20;6.57;;;3.55;;
55993;SDS011;67425;52.126;20.638;2023-07-09T05:50:48;4.55;;;3.38;;
55993;SDS011;67425;52.126;20.638;2023-07-09T05:53:17;17.23;;;3.70;;
55993;SDS011;67425;52.126;20.638;2023-07-09T05:55:42;7.00;;;3.70;;
55993;SDS011;67425;52.126;20.638;2023-07-09T05:58:08;13.07;;;3.67;;
55993;SDS011;67425;52.126;20.638;2023-07-09T06:00:33;8.07;;;3.42;;
55993;SDS011;67425;52.126;20.638;2023-07-09T06:02:58;7.47;;;3.22;;
55993;SDS011;67425;52.126;20.638;2023-07-09T06:05:24;7.38;;;3.80;;
55993;SDS011;67425;52.126;20.638;2023-07-09T06:07:49;6.60;;;3.50;;
55993;SDS011;67425;52.126;20.638;2023-07-09T06:10:14;3.25;;;2.58;;
55993;SDS011;67425;52.126;20.638;2023-07-09T06:12:40;11.00;;;3.67;;
55993;SDS011;67425;52.126;20.638;2023-07-09T06:15:05;4.45;;;3.35;;
55993;SDS011;67425;52.126;20.638;2023-07-09T06:17:31;9.02;;;3.45;;
55993;SDS011;67425;52.126;20.638;2023-07-09T06:19:57;5.30;;;2.58;;
55993;SDS011;67425;52.126;20.638;2023-07-09T06:22:22;8.77;;;3.00;;
55993;SDS011;67425;52.126;20.638;2023-07-09T06:24:47;8.90;;;3.10;;
55993;SDS011;67425;52.126;20.638;2023-07-09T06:27:13;4.35;;;2.30;;
55993;SDS011;67425;52.126;20.638;2023-07-09T06:29:38;3.53;;;2.25;;
55993;SDS011;67425;52.126;20.638;2023-07-09T06:32:04;10.77;;;2.30;;
55993;SDS011;67425;52.126;20.638;2023-07-09T06:34:29;3.75;;;2.20;;
55993;SDS011;67425;52.126;20.638;2023-07-09T06:36:56;5.05;;;1.80;;
55993;SDS011;67425;52.126;20.638;2023-07-09T06:39:22;3.35;;;2.30;;
55993;SDS011;67425;52.126;20.638;2023-07-09T06:41:47;4.45;;;2.00;;
55993;SDS011;67425;52.126;20.638;2023-07-09T06:44:13;3.67;;;1.88;;
55993;SDS011;67425;52.126;20.638;2023-07-09T06:46:39;3.28;;;2.10;;
55993;SDS011;67425;52.126;20.638;2023-07-09T06:49:04;2.15;;;1.90;;
55993;SDS011;67425;52.126;20.638;2023-07-09T06:51:32;3.38;;;2.03;;
55993;SDS011;67425;52.126;20.638;2023-07-09T06:53:58;7.05;;;1.95;;
55993;SDS011;67425;52.126;20.638;2023-07-09T06:56:23;1.70;;;1.60;;
55993;SDS011;67425;52.126;20.638;2023-07-09T06:58:49;3.22;;;2.22;;
55993;SDS011;67425;52.126;20.638;2023-07-09T07:01:14;3.30;;;1.77;;
55993;SDS011;67425;52.126;20.638;2023-07-09T07:03:40;5.97;;;2.13;;
55993;SDS011;67425;52.126;20.638;2023-07-09T07:06:05;2.30;;;1.70;;
55993;SDS011;67425;52.126;20.638;2023-07-09T07:08:31;2.42;;;1.50;;
55993;SDS011;67425;52.126;20.638;2023-07-09T07:10:58;2.05;;;1.70;;
55993;SDS011;67425;52.126;20.638;2023-07-09T07:13:31;6.70;;;2.03;;
55993;SDS011;67425;52.126;20.638;2023-07-09T07:16:00;1.63;;;1.10;;
55993;SDS011;67425;52.126;20.638;2023-07-09T07:18:26;5.30;;;1.60;;
55993;SDS011;67425;52.126;20.638;2023-07-09T07:20:51;4.47;;;1.75;;
55993;SDS011;67425;52.126;20.638;2023-07-09T07:23:17;3.17;;;1.33;;
55993;SDS011;67425;52.126;20.638;2023-07-09T07:25:44;2.08;;;1.88;;
55993;SDS011;67425;52.126;20.638;2023-07-09T07:28:10;2.45;;;2.15;;
55993;SDS011;67425;52.126;20.638;2023-07-09T07:30:35;5.25;;;2.08;;
55993;SDS011;67425;52.126;20.638;2023-07-09T07:33:01;1.55;;;1.38;;
55993;SDS011;67425;52.126;20.638;2023-07-09T07:35:26;3.28;;;1.90;;
55993;SDS011;67425;52.126;20.638;2023-07-09T07:37:51;3.75;;;1.67;;
55993;SDS011;67425;52.126;20.638;2023-07-09T07:40:17;2.95;;;1.27;;
55993;SDS011;67425;52.126;20.638;2023-07-09T07:42:42;4.00;;;1.80;;
55993;SDS011;67425;52.126;20.638;2023-07-09T07:45:07;4.25;;;2.05;;
55993;SDS011;67425;52.126;20.638;2023-07-09T07:47:33;4.32;;;2.00;;
55993;SDS011;67425;52.126;20.638;2023-07-09T07:49:59;2.10;;;1.90;;
55993;SDS011;67425;52.126;20.638;2023-07-09T07:52:24;12.05;;;2.15;;
55993;SDS011;67425;52.126;20.638;2023-07-09T07:54:50;2.40;;;1.60;;
55993;SDS011;67425;52.126;20.638;2023-07-09T07:57:17;3.70;;;1.92;;
55993;SDS011;67425;52.126;20.638;2023-07-09T07:59:43;1.75;;;1.65;;
55993;SDS011;67425;52.126;20.638;2023-07-09T08:02:11;6.25;;;1.00;;
55993;SDS011;67425;52.126;20.638;2023-07-09T08:04:38;8.73;;;1.55;;
55993;SDS011;67425;52.126;20.638;2023-07-09T08:07:04;6.93;;;2.15;;
55993;SDS011;67425;52.126;20.638;2023-07-09T08:09:29;2.03;;;1.55;;
55993;SDS011;67425;52.126;20.638;2023-07-09T08:11:55;2.20;;;1.73;;
55993;SDS011;67425;52.126;20.638;2023-07-09T08:14:20;1.42;;;1.33;;
55993;SDS011;67425;52.126;20.638;2023-07-09T08:16:46;2.75;;;1.40;;
55993;SDS011;67425;52.126;20.638;2023-07-09T08:19:12;2.85;;;1.50;;
55993;SDS011;67425;52.126;20.638;2023-07-09T08:21:37;1.50;;;1.40;;
55993;SDS011;67425;52.126;20.638;2023-07-09T08:24:03;3.25;;;1.85;;
55993;SDS011;67425;52.126;20.638;2023-07-09T08:26:29;1.38;;;1.05;;
55993;SDS011;67425;52.126;20.638;2023-07-09T08:28:54;1.65;;;1.52;;
55993;SDS011;67425;52.126;20.638;2023-07-09T08:31:19;3.58;;;1.60;;
55993;SDS011;67425;52.126;20.638;2023-07-09T08:33:45;2.55;;;1.65;;
55993;SDS011;67425;52.126;20.638;2023-07-09T08:36:11;3.92;;;0.98;;
55993;SDS011;67425;52.126;20.638;2023-07-09T08:38:37;1.83;;;1.70;;
55993;SDS011;67425;52.126;20.638;2023-07-09T08:46:20;1.50;;;1.40;;
55993;SDS011;67425;52.126;20.638;2023-07-09T08:48:54;6.53;;;1.90;;
55993;SDS011;67425;52.126;20.638;2023-07-09T08:51:28;3.72;;;1.50;;
55993;SDS011;67425;52.126;20.638;2023-07-09T08:54:00;1.45;;;1.35;;
55993;SDS011;67425;52.126;20.638;2023-07-09T08:56:29;1.60;;;1.40;;
55993;SDS011;67425;52.126;20.638;2023-07-09T08:58:58;3.90;;;1.23;;
55993;SDS011;67425;52.126;20.638;2023-07-09T09:01:27;2.63;;;1.38;;
55993;SDS011;67425;52.126;20.638;2023-07-09T09:03:58;2.92;;;1.38;;
55993;SDS011;67425;52.126;20.638;2023-07-09T09:06:33;1.08;;;0.73;;
55993;SDS011;67425;52.126;20.638;2023-07-09T09:09:20;2.85;;;0.93;;
55993;SDS011;67425;52.126;20.638;2023-07-09T09:12:04;0.90;;;0.90;;
55993;SDS011;67425;52.126;20.638;2023-07-09T09:14:39;1.23;;;1.13;;
55993;SDS011;67425;52.126;20.638;2023-07-09T09:17:19;0.98;;;0.80;;
55993;SDS011;67425;52.126;20.638;2023-07-09T09:19:50;0.70;;;0.70;;
55993;SDS011;67425;52.126;20.638;2023-07-09T09:22:23;1.75;;;1.05;;
55993;SDS011;67425;52.126;20.638;2023-07-09T09:27:36;0.50;;;0.50;;
55993;SDS011;67425;52.126;20.638;2023-07-09T09:30:04;1.70;;;1.35;;
55993;SDS011;67425;52.126;20.638;2023-07-09T09:32:31;1.15;;;1.05;;
55993;SDS011;67425;52.126;20.638;2023-07-09T09:35:12;1.25;;;1.02;;
55993;SDS011;67425;52.126;20.638;2023-07-09T09:37:39;1.02;;;1.00;;
55993;SDS011;67425;52.126;20.638;2023-07-09T09:40:04;2.08;;;1.30;;
55993;SDS011;67425;52.126;20.638;2023-07-09T09:42:33;2.88;;;1.00;;
55993;SDS011;67425;52.126;20.638;2023-07-09T09:44:59;3.10;;;1.55;;
55993;SDS011;67425;52.126;20.638;2023-07-09T09:47:26;2.17;;;1.00;;
55993;SDS011;67425;52.126;20.638;2023-07-09T09:49:53;5.88;;;0.70;;
55993;SDS011;67425;52.126;20.638;2023-07-09T09:52:19;1.60;;;1.08;;
55993;SDS011;67425;52.126;20.638;2023-07-09T09:54:52;1.30;;;1.20;;
55993;SDS011;67425;52.126;20.638;2023-07-09T09:57:21;2.95;;;1.40;;
55993;SDS011;67425;52.126;20.638;2023-07-09T09:59:48;2.20;;;1.25;;
55993;SDS011;67425;52.126;20.638;2023-07-09T10:02:20;0.70;;;0.70;;
55993;SDS011;67425;52.126;20.638;2023-07-09T10:07:32;1.45;;;1.20;;
55993;SDS011;67425;52.126;20.638;2023-07-09T10:10:02;16.13;;;1.27;;
55993;SDS011;67425;52.126;20.638;2023-07-09T10:12:47;0.60;;;0.60;;
55993;SDS011;67425;52.126;20.638;2023-07-09T10:21:41;0.90;;;0.90;;
55993;SDS011;67425;52.126;20.638;2023-07-09T10:24:12;9.10;;;0.85;;
55993;SDS011;67425;52.126;20.638;2023-07-09T10:33:03;0.65;;;0.65;;
55993;SDS011;67425;52.126;20.638;2023-07-09T10:35:37;1.48;;;1.15;;
55993;SDS011;67425;52.126;20.638;2023-07-09T10:40:52;0.80;;;0.80;;
55993;SDS011;67425;52.126;20.638;2023-07-09T10:43:29;0.90;;;0.90;;
55993;SDS011;67425;52.126;20.638;2023-07-09T10:46:02;1.30;;;0.77;;
55993;SDS011;67425;52.126;20.638;2023-07-09T10:48:36;1.48;;;1.00;;
55993;SDS011;67425;52.126;20.638;2023-07-09T10:51:17;3.75;;;0.80;;
55993;SDS011;67425;52.126;20.638;2023-07-09T10:53:45;2.92;;;0.88;;
55993;SDS011;67425;52.126;20.638;2023-07-09T10:56:21;4.78;;;0.73;;
55993;SDS011;67425;52.126;20.638;2023-07-09T10:58:55;2.05;;;0.95;;
55993;SDS011;67425;52.126;20.638;2023-07-09T11:01:32;2.10;;;0.98;;
55993;SDS011;67425;52.126;20.638;2023-07-09T11:06:58;1.58;;;0.90;;
55993;SDS011;67425;52.126;20.638;2023-07-09T11:09:29;3.05;;;1.13;;
55993;SDS011;67425;52.126;20.638;2023-07-09T11:12:00;1.48;;;1.23;;
55993;SDS011;67425;52.126;20.638;2023-07-09T11:14:31;1.95;;;0.82;;
55993;SDS011;67425;52.126;20.638;2023-07-09T11:17:01;2.60;;;1.00;;
55993;SDS011;67425;52.126;20.638;2023-07-09T11:19:28;1.77;;;0.80;;
55993;SDS011;67425;52.126;20.638;2023-07-09T11:21:57;1.00;;;0.90;;
55993;SDS011;67425;52.126;20.638;2023-07-09T11:24:51;0.85;;;0.85;;
55993;SDS011;67425;52.126;20.638;2023-07-09T11:27:18;5.18;;;0.90;;
55993;SDS011;67425;52.126;20.638;2023-07-09T11:29:46;0.82;;;0.82;;
55993;SDS011;67425;52.126;20.638;2023-07-09T11:32:20;2.08;;;0.75;;
55993;SDS011;67425;52.126;20.638;2023-07-09T11:34:47;1.10;;;1.00;;
55993;SDS011;67425;52.126;20.638;2023-07-09T11:37:12;1.00;;;0.90;;
55993;SDS011;67425;52.126;20.638;2023-07-09T11:45:27;2.50;;;0.77;;
55993;SDS011;67425;52.126;20.638;2023-07-09T11:47:59;0.50;;;0.50;;
55993;SDS011;67425;52.126;20.638;2023-07-09T11:50:34;2.50;;;0.90;;
55993;SDS011;67425;52.126;20.638;2023-07-09T11:53:13;0.68;;;0.68;;
55993;SDS011;67425;52.126;20.638;2023-07-09T11:55:47;1.55;;;1.00;;
55993;SDS011;67425;52.126;20.638;2023-07-09T11:58:16;1.83;;;0.93;;
55993;SDS011;67425;52.126;20.638;2023-07-09T12:00:47;0.60;;;0.60;;
55993;SDS011;67425;52.126;20.638;2023-07-09T12:03:19;0.93;;;0.90;;
55993;SDS011;67425;52.126;20.638;2023-07-09T12:05:55;2.75;;;0.80;;
55993;SDS011;67425;52.126;20.638;2023-07-09T12:08:32;1.20;;;1.08;;
55993;SDS011;67425;52.126;20.638;2023-07-09T12:11:02;0.80;;;0.70;;
55993;SDS011;67425;52.126;20.638;2023-07-09T12:13:28;0.60;;;0.60;;
55993;SDS011;67425;52.126;20.638;2023-07-09T12:15:54;0.70;;;0.70;;
55993;SDS011;67425;52.126;20.638;2023-07-09T12:18:19;0.75;;;0.65;;
55993;SDS011;67425;52.126;20.638;2023-07-09T12:20:47;3.05;;;0.90;;
55993;SDS011;67425;52.126;20.638;2023-07-09T12:23:27;0.90;;;0.90;;
55993;SDS011;67425;52.126;20.638;2023-07-09T12:25:56;0.80;;;0.80;;
55993;SDS011;67425;52.126;20.638;2023-07-09T12:28:26;2.92;;;0.70;;
55993;SDS011;67425;52.126;20.638;2023-07-09T12:30:53;1.88;;;1.00;;
55993;SDS011;67425;52.126;20.638;2023-07-09T12:33:20;1.00;;;0.90;;
55993;SDS011;67425;52.126;20.638;2023-07-09T12:35:55;1.75;;;0.60;;
55993;SDS011;67425;52.126;20.638;2023-07-09T12:38:23;6.90;;;0.93;;
55993;SDS011;67425;52.126;20.638;2023-07-09T12:40:51;5.00;;;0.77;;
55993;SDS011;67425;52.126;20.638;2023-07-09T12:43:28;2.90;;;0.98;;
55993;SDS011;67425;52.126;20.638;2023-07-09T12:45:56;1.02;;;0.80;;
55993;SDS011;67425;52.126;20.638;2023-07-09T12:48:24;0.82;;;0.60;;
55993;SDS011;67425;52.126;20.638;2023-07-09T12:50:53;2.50;;;1.13;;
55993;SDS011;67425;52.126;20.638;2023-07-09T12:53:20;0.80;;;0.80;;
55993;SDS011;67425;52.126;20.638;2023-07-09T12:55:51;1.48;;;0.90;;
55993;SDS011;67425;52.126;20.638;2023-07-09T12:58:20;5.68;;;0.82;;
55993;SDS011;67425;52.126;20.638;2023-07-09T13:00:48;1.45;;;1.00;;
55993;SDS011;67425;52.126;20.638;2023-07-09T13:03:28;1.17;;;0.95;;
55993;SDS011;67425;52.126;20.638;2023-07-09T13:08:26;4.50;;;0.70;;
55993;SDS011;67425;52.126;20.638;2023-07-09T13:10:54;1.77;;;0.80;;
55993;SDS011;67425;52.126;20.638;2023-07-09T13:13:21;2.00;;;0.70;;
55993;SDS011;67425;52.126;20.638;2023-07-09T13:15:49;1.88;;;0.77;;
55993;SDS011;67425;52.126;20.638;2023-07-09T13:18:24;0.73;;;0.73;;
55993;SDS011;67425;52.126;20.638;2023-07-09T13:20:50;0.68;;;0.65;;
55993;SDS011;67425;52.126;20.638;2023-07-09T13:25:53;1.35;;;0.80;;
55993;SDS011;67425;52.126;20.638;2023-07-09T13:28:25;0.90;;;0.90;;
55993;SDS011;67425;52.126;20.638;2023-07-09T13:30:53;0.85;;;0.85;;
55993;SDS011;67425;52.126;20.638;2023-07-09T13:33:22;2.10;;;1.10;;
55993;SDS011;67425;52.126;20.638;2023-07-09T13:35:48;1.63;;;0.85;;
55993;SDS011;67425;52.126;20.638;2023-07-09T13:38:17;2.45;;;1.00;;
55993;SDS011;67425;52.126;20.638;2023-07-09T13:40:44;1.60;;;1.10;;
55993;SDS011;67425;52.126;20.638;2023-07-09T13:43:13;0.70;;;0.70;;
55993;SDS011;67425;52.126;20.638;2023-07-09T13:45:40;2.75;;;1.10;;
55993;SDS011;67425;52.126;20.638;2023-07-09T13:48:16;1.80;;;1.20;;
55993;SDS011;67425;52.126;20.638;2023-07-09T13:50:44;0.60;;;0.60;;
55993;SDS011;67425;52.126;20.638;2023-07-09T13:53:15;2.33;;;0.65;;
55993;SDS011;67425;52.126;20.638;2023-07-09T13:55:46;1.13;;;1.08;;
55993;SDS011;67425;52.126;20.638;2023-07-09T13:58:13;0.70;;;0.70;;
55993;SDS011;67425;52.126;20.638;2023-07-09T14:00:40;1.23;;;1.15;;
55993;SDS011;67425;52.126;20.638;2023-07-09T14:03:18;1.10;;;1.00;;
55993;SDS011;67425;52.126;20.638;2023-07-09T14:05:46;1.30;;;0.82;;
55993;SDS011;67425;52.126;20.638;2023-07-09T14:08:12;2.08;;;0.70;;
55993;SDS011;67425;52.126;20.638;2023-07-09T14:10:37;1.33;;;1.23;;
55993;SDS011;67425;52.126;20.638;2023-07-09T14:13:03;1.33;;;1.08;;
55993;SDS011;67425;52.126;20.638;2023-07-09T14:15:29;1.45;;;0.80;;
55993;SDS011;67425;52.126;20.638;2023-07-09T14:17:54;0.70;;;0.70;;
55993;SDS011;67425;52.126;20.638;2023-07-09T14:20:21;1.48;;;0.80;;
55993;SDS011;67425;52.126;20.638;2023-07-09T14:22:47;0.50;;;0.50;;
55993;SDS011;67425;52.126;20.638;2023-07-09T14:25:15;4.32;;;0.98;;
55993;SDS011;67425;52.126;20.638;2023-07-09T14:27:44;0.90;;;0.90;;
55993;SDS011;67425;52.126;20.638;2023-07-09T14:30:13;0.55;;;0.55;;
55993;SDS011;67425;52.126;20.638;2023-07-09T14:32:40;1.02;;;0.98;;
55993;SDS011;67425;52.126;20.638;2023-07-09T14:35:11;1.30;;;0.85;;
55993;SDS011;67425;52.126;20.638;2023-07-09T14:37:48;1.08;;;0.98;;
55993;SDS011;67425;52.126;20.638;2023-07-09T14:40:15;1.77;;;1.20;;
55993;SDS011;67425;52.126;20.638;2023-07-09T14:42:42;0.75;;;0.75;;
55993;SDS011;67425;52.126;20.638;2023-07-09T14:45:19;1.73;;;0.88;;
55993;SDS011;67425;52.126;20.638;2023-07-09T14:47:51;1.10;;;1.00;;
55993;SDS011;67425;52.126;20.638;2023-07-09T14:50:17;1.13;;;1.02;;
55993;SDS011;67425;52.126;20.638;2023-07-09T14:52:45;1.05;;;1.02;;
55993;SDS011;67425;52.126;20.638;2023-07-09T14:55:18;1.15;;;1.08;;
55993;SDS011;67425;52.126;20.638;2023-07-09T14:57:45;8.13;;;1.30;;
55993;SDS011;67425;52.126;20.638;2023-07-09T15:00:20;5.43;;;0.80;;
55993;SDS011;67425;52.126;20.638;2023-07-09T15:02:48;0.50;;;0.50;;
55993;SDS011;67425;52.126;20.638;2023-07-09T15:05:18;1.00;;;1.00;;
55993;SDS011;67425;52.126;20.638;2023-07-09T15:07:46;2.05;;;1.20;;
55993;SDS011;67425;52.126;20.638;2023-07-09T15:10:13;0.70;;;0.70;;
55993;SDS011;67425;52.126;20.638;2023-07-09T15:12:49;0.85;;;0.80;;
55993;SDS011;67425;52.126;20.638;2023-07-09T15:15:20;1.08;;;1.00;;
55993;SDS011;67425;52.126;20.638;2023-07-09T15:17:48;1.40;;;0.90;;
55993;SDS011;67425;52.126;20.638;2023-07-09T15:20:21;0.77;;;0.77;;